Time;durP1;ratioP1;P1;durP2;ratioP2;P2;SDS_P1;SDS_P2;PMS_P1;PMS_P2;Temp;Humidity;BMP_temperature;BMP_pressure;BME280_temperature;BME280_humidity;BME280_pressure;Samples;Min_cycle;Max_cycle;Signal;HPM_P1;HPM_P2
2023/07/28 00:04:02;;;;;;;2.72;1.80;;;;;;;15.86;70.28;99228.31;31085057;28;107458;-63
2023/07/28 00:19:03;;;;;;;2.37;1.70;;;;;;;15.96;70.24;99220.50;31083444;28;97501;-64
2023/07/28 00:34:04;;;;;;;4.13;1.70;;;;;;;15.94;70.37;99197.59;31082845;28;96817;-65
2023/07/28 00:49:04;;;;;;;3.53;1.70;;;;;;;15.96;70.66;99182.06;31088632;28;96863;-66
2023/07/28 01:04:05;;;;;;;5.70;2.60;;;;;;;15.89;71.06;99177.63;31102640;28;96687;-65
2023/07/28 01:19:05;;;;;;;4.00;3.08;;;;;;;15.93;71.92;99169.13;31101570;28;97506;-66
2023/07/28 01:34:06;;;;;;;13.85;8.55;;;;;;;16.02;72.05;99165.03;31099901;28;97050;-66
2023/07/28 01:49:06;;;;;;;8.77;6.07;;;;;;;16.12;72.14;99145.69;31098411;28;97128;-66
2023/07/28 02:04:06;;;;;;;4.85;4.10;;;;;;;16.14;72.33;99139.00;31095611;28;102266;-65
2023/07/28 02:19:07;;;;;;;5.68;3.72;;;;;;;16.10;72.54;99135.13;31092750;28;96923;-66
2023/07/28 02:34:08;;;;;;;5.10;3.00;;;;;;;16.08;73.26;99134.56;31093056;28;97067;-67
2023/07/28 02:49:08;;;;;;;5.65;4.00;;;;;;;16.13;73.19;99142.75;31092124;28;97246;-65
2023/07/28 03:04:08;;;;;;;4.60;3.72;;;;;;;16.29;73.54;99121.59;31091487;28;97306;-65
2023/07/28 03:19:09;;;;;;;8.82;4.45;;;;;;;16.29;73.41;99137.72;31086876;28;110842;-64
2023/07/28 03:34:09;;;;;;;4.07;3.40;;;;;;;16.16;74.18;99144.16;31085815;28;96751;-64
2023/07/28 03:49:09;;;;;;;4.20;3.10;;;;;;;16.16;74.97;99128.84;31083092;28;115333;-65
2023/07/28 04:04:10;;;;;;;4.63;2.95;;;;;;;16.31;75.47;99111.44;31083144;28;105625;-65
2023/07/28 04:19:10;;;;;;;3.97;3.20;;;;;;;16.43;75.09;99104.19;31082974;28;97103;-62
2023/07/28 04:34:11;;;;;;;3.00;2.03;;;;;;;16.51;75.74;99093.09;31101384;28;97348;-62
2023/07/28 04:49:11;;;;;;;2.95;2.10;;;;;;;16.66;75.66;99081.84;31101670;28;96840;-63
2023/07/28 05:04:11;;;;;;;2.72;1.90;;;;;;;16.81;75.27;99093.94;31099947;28;107169;-64
2023/07/28 05:19:12;;;;;;;3.42;2.00;;;;;;;16.74;75.37;99120.97;31099782;28;97171;-63
2023/07/28 05:34:12;;;;;;;4.35;2.17;;;;;;;16.74;76.59;99107.53;31092505;28;97256;-62
2023/07/28 05:49:13;;;;;;;4.97;2.05;;;;;;;16.89;76.69;99097.13;31093865;28;97273;-63
2023/07/28 06:04:13;;;;;;;3.65;1.80;;;;;;;17.17;77.24;99106.25;31091869;28;108209;-62
2023/07/28 06:19:15;;;;;;;2.90;2.20;;;;;;;17.86;76.63;99104.50;31087614;28;97989;-62
2023/07/28 06:34:15;;;;;;;2.40;1.43;;;;;;;18.10;76.01;99110.56;31088637;28;97846;-63
2023/07/28 06:49:16;;;;;;;2.33;1.20;;;;;;;18.20;76.14;99129.56;31085289;28;97434;-63
2023/07/28 07:04:16;;;;;;;1.70;0.80;;;;;;;18.75;75.62;99121.69;31086598;28;97250;-63
2023/07/28 07:19:17;;;;;;;1.05;0.70;;;;;;;18.84;75.39;99151.78;31084616;28;97167;-62
2023/07/28 07:34:17;;;;;;;1.23;0.60;;;;;;;19.42;74.61;99144.94;31080419;28;107425;-66
2023/07/28 07:49:17;;;;;;;2.25;0.60;;;;;;;19.48;73.72;99153.06;31091939;28;97922;-62
2023/07/28 08:04:18;;;;;;;1.38;0.68;;;;;;;19.74;72.79;99151.44;31079172;28;98064;-64
2023/07/28 08:19:18;;;;;;;0.70;0.60;;;;;;;19.82;71.99;99175.34;31079404;28;102947;-64
2023/07/28 08:34:19;;;;;;;2.00;0.50;;;;;;;19.81;72.06;99173.69;31074732;28;97240;-64
2023/07/28 08:49:19;;;;;;;2.27;0.70;;;;;;;20.44;72.24;99178.53;31073578;28;98334;-62
2023/07/28 09:04:20;;;;;;;0.60;0.60;;;;;;;20.50;71.08;99199.09;31073313;28;108477;-62
2023/07/28 09:19:21;;;;;;;1.97;0.47;;;;;;;22.92;69.38;99183.41;31094959;28;97530;-65
2023/07/28 09:34:26;;;;;;;2.27;0.77;;;;;;;25.33;65.51;99189.97;31094725;28;98457;-62
2023/07/28 09:49:34;;;;;;;1.30;0.70;;;;;;;27.31;58.58;99174.31;31092892;28;97218;-66
2023/07/28 10:04:35;;;;;;;0.80;0.63;;;;;;;26.75;55.60;99170.00;31092002;28;97502;-64
2023/07/28 10:19:36;;;;;;;4.32;1.60;;;;;;;26.12;54.84;99174.91;31091699;28;97250;-65
2023/07/28 10:34:37;;;;;;;3.03;0.90;;;;;;;27.46;51.96;99165.00;31091212;28;96793;-64
2023/07/28 10:49:37;;;;;;;2.45;0.90;;;;;;;28.49;48.49;99170.72;31088219;28;97232;-63
2023/07/28 11:04:38;;;;;;;2.90;0.80;;;;;;;28.85;43.81;99164.28;31085687;28;100368;-63
2023/07/28 11:19:38;;;;;;;2.20;1.17;;;;;;;28.82;41.76;99158.63;31082406;28;109094;-63
2023/07/28 11:34:41;;;;;;;2.22;1.00;;;;;;;29.35;40.18;99149.41;31081198;28;101030;-64
2023/07/28 11:49:48;;;;;;;1.90;1.00;;;;;;;29.97;39.69;99141.19;31080649;28;96767;-63
2023/07/28 12:04:50;;;;;;;1.17;0.83;;;;;;;29.85;38.46;99136.38;31078651;28;98002;-65
2023/07/28 12:20:14;;;;;;;1.30;0.70;;;;;;;28.94;37.62;99123.19;31078013;28;97468;-63
2023/07/28 12:35:15;;;;;;;0.63;0.43;;;;;;;28.93;37.37;99139.97;31077305;28;97388;-63
2023/07/28 12:50:15;;;;;;;0.93;0.57;;;;;;;29.36;38.11;99148.31;31090339;28;97384;-65
2023/07/28 13:05:17;;;;;;;1.38;0.60;;;;;;;28.60;38.36;99156.75;31095117;28;100910;-62
2023/07/28 13:20:17;;;;;;;3.23;0.80;;;;;;;28.81;38.73;99144.09;31094645;28;96730;-63
2023/07/28 13:35:17;;;;;;;2.85;0.65;;;;;;;28.59;39.37;99160.63;31095274;28;97083;-64
2023/07/28 13:50:18;;;;;;;2.88;0.68;;;;;;;28.27;39.61;99184.44;31094895;28;97294;-62
2023/07/28 14:05:19;;;;;;;2.70;0.57;;;;;;;28.11;39.99;99184.84;31093481;28;96946;-64
2023/07/28 14:20:19;;;;;;;1.03;0.53;;;;;;;28.16;39.08;99186.66;31089617;28;97522;-63
2023/07/28 14:35:20;;;;;;;1.38;0.50;;;;;;;27.87;38.50;99174.16;31089901;28;97444;-66
2023/07/28 14:50:22;;;;;;;0.73;0.45;;;;;;;27.19;38.71;99188.50;31087853;28;113369;-65
2023/07/28 15:05:22;;;;;;;1.50;0.40;;;;;;;27.06;39.36;99188.53;31084182;28;97485;-65
2023/07/28 15:20:24;;;;;;;1.95;0.68;;;;;;;26.92;39.07;99199.47;31082938;28;112373;-65
2023/07/28 15:35:24;;;;;;;0.80;0.50;;;;;;;26.84;39.50;99206.44;31075693;28;97181;-64
2023/07/28 15:50:26;;;;;;;1.00;0.70;;;;;;;26.66;40.31;99208.91;31084319;28;97237;-64
2023/07/28 16:05:26;;;;;;;0.85;0.70;;;;;;;26.53;41.20;99209.69;31083218;28;97250;-64
2023/07/28 16:20:26;;;;;;;1.58;0.60;;;;;;;26.47;41.09;99221.84;31088244;28;97181;-65
2023/07/28 16:35:27;;;;;;;2.65;0.70;;;;;;;26.48;41.10;99224.25;31057459;28;98045;-64
2023/07/28 16:50:27;;;;;;;1.10;0.50;;;;;;;26.20;41.29;99244.41;31091857;28;97341;-64
2023/07/28 17:05:27;;;;;;;2.10;0.90;;;;;;;26.09;41.57;99263.66;31092498;28;97563;-65
2023/07/28 17:20:28;;;;;;;1.27;0.77;;;;;;;25.88;41.82;99271.31;31090495;28;97125;-63
2023/07/28 17:35:28;;;;;;;6.88;1.33;;;;;;;25.47;42.61;99283.56;31087518;28;97231;-63
2023/07/28 17:50:29;;;;;;;7.00;2.38;;;;;;;25.09;43.83;99298.97;31085747;28;96728;-64
2023/07/28 18:05:29;;;;;;;3.88;0.90;;;;;;;24.77;46.32;99331.13;31086713;28;112731;-63
2023/07/28 18:20:30;;;;;;;3.65;1.13;;;;;;;23.88;48.66;99333.84;31084586;28;97534;-64
2023/07/28 18:35:30;;;;;;;2.40;1.23;;;;;;;23.06;51.11;99348.47;31077949;28;117645;-65
2023/07/28 18:50:30;;;;;;;2.83;1.30;;;;;;;22.43;52.95;99368.53;31081321;28;106700;-65
2023/07/28 19:05:31;;;;;;;;;;;;;;;21.83;54.81;99376.19;31081326;28;97035;-64
2023/07/28 19:20:31;;;;;;;2.80;1.60;;;;;;;21.35;56.52;99397.88;31081624;28;97228;-64
2023/07/28 19:35:32;;;;;;;3.17;1.50;;;;;;;21.15;58.17;99421.03;31078671;28;97209;-64
2023/07/28 19:50:33;;;;;;;2.30;1.50;;;;;;;20.92;59.25;99433.81;31074351;28;96980;-64
2023/07/28 20:05:35;;;;;;;8.13;2.00;;;;;;;20.70;60.18;99439.31;31071278;28;97021;-64
2023/07/28 20:20:35;;;;;;;3.03;2.40;;;;;;;20.43;61.33;99448.19;31069103;28;96845;-64
2023/07/28 20:35:36;;;;;;;4.73;2.00;;;;;;;20.09;62.39;99451.06;31069931;28;96864;-65
2023/07/28 20:50:37;;;;;;;3.57;2.37;;;;;;;19.73;63.61;99457.84;31071201;28;97211;-65
2023/07/28 21:05:37;;;;;;;3.57;1.97;;;;;;;19.26;64.87;99470.66;31077771;28;110469;-63
2023/07/28 21:20:37;;;;;;;3.95;2.10;;;;;;;18.65;66.63;99477.63;31090437;28;97464;-63
2023/07/28 21:35:38;;;;;;;2.90;2.10;;;;;;;18.40;67.99;99482.28;31088312;28;110045;-64
2023/07/28 21:50:38;;;;;;;5.97;2.70;;;;;;;18.45;68.72;99489.66;31086632;28;103185;-64
2023/07/28 22:05:38;;;;;;;3.53;2.35;;;;;;;18.43;69.29;99507.97;31079490;28;97500;-63
2023/07/28 22:20:43;;;;;;;4.93;2.38;;;;;;;18.20;69.75;99515.03;31087739;28;97230;-63
2023/07/28 22:35:44;;;;;;;5.03;2.83;;;;;;;17.88;70.41;99517.28;31085379;28;97044;-63
2023/07/28 22:50:44;;;;;;;4.18;3.08;;;;;;;17.58;71.12;99526.28;31084521;28;97755;-62
2023/07/28 23:05:45;;;;;;;7.50;5.40;;;;;;;17.41;71.95;99534.22;31083730;28;97103;-63
2023/07/28 23:20:45;;;;;;;5.28;3.50;;;;;;;17.09;72.57;99546.06;31078876;28;97690;-64
2023/07/28 23:35:45;;;;;;;4.40;3.33;;;;;;;16.84;73.44;99532.72;31083332;28;101793;-64
2023/07/28 23:50:45;;;;;;;5.13;3.10;;;;;;;16.72;73.97;99531.84;31087187;28;96702;-67
